UKLL/LWO METAR and TAF weather

Enter ICAO airport designator
Station Type Date Time Source
UKLL METAR 2020/06/05 09:30 UTC NOAA

UKLL 050930Z 20007MPS 170V230 9999 SCT040CB 21/13 Q1002 R13/CLRD// NOSIG


Station Type Date Time Source
UKLL Decoded METAR 2020/06/05 09:30 UTC NOAA

L'Viv, Ukraine (UKLL) 49-49N 023-57E 323M
Jun 05, 2020 - 05:30 AM EDT / 2020.06.05 0930 UTC
Wind: from the SSW (200 degrees) at 16 MPH (14 KT) (direction variable):0
Visibility: greater than 7 mile(s):0
Sky conditions: partly cloudy
Weather: Cumulonimbus clouds observed
Temperature: 69 F (21 C)
Dew Point: 55 F (13 C)
Relative Humidity: 60%
Pressure (altimeter): 29.59 in. Hg (1002 hPa)
ob: UKLL 050930Z 20007MPS 170V230 9999 SCT040CB 21/13 Q1002 R13/CLRD// NOSIG
cycle: 9

Station Type Date Time Source
UKLL TAF 2020/06/05 06:15 UTC NOAA

TAF UKLL 050507Z 0506/0606 17004MPS 9999 BKN020
TEMPO 0506/0524 20008G14MPS 3000 -SHRA BKN007 BKN020CB
BECMG 0600/0602 VRB01MPS 2100 BR BKN007
TEMPO 0602/0606 19004MPS -SHRA BKN005 BKN020CB

Example: see airport list